Time;durP1;ratioP1;P1;durP2;ratioP2;P2;SDS_P1;SDS_P2;PMS_P1;PMS_P2;Temp;Humidity;BMP_temperature;BMP_pressure;BME280_temperature;BME280_humidity;BME280_pressure;Samples;Min_cycle;Max_cycle;Signal;HPM_P1;HPM_P2
2023/05/20 00:01:15;;;;;;;17.48;4.97;;;;;;;;;;4947170;28;20151;-77
2023/05/20 00:03:41;;;;;;;14.27;4.75;;;;;;;;;;4942192;28;20038;-76
2023/05/20 00:06:07;;;;;;;11.63;4.35;;;;;;;;;;4943583;28;20027;-77
2023/05/20 00:08:33;;;;;;;10.00;4.32;;;;;;;;;;4943877;28;20098;-77
2023/05/20 00:10:59;;;;;;;17.23;4.63;;;;;;;;;;4955962;28;20035;-76
2023/05/20 00:13:25;;;;;;;13.75;4.32;;;;;;;;;;4944733;28;20039;-76
2023/05/20 00:15:52;;;;;;;15.55;5.53;;;;;;;;;;4945941;28;20487;-76
2023/05/20 00:18:18;;;;;;;15.20;5.47;;;;;;;;;;4943282;28;20034;-77
2023/05/20 00:20:44;;;;;;;13.93;4.80;;;;;;;;;;4946793;28;20039;-76
2023/05/20 00:23:10;;;;;;;20.40;5.90;;;;;;;;;;4943717;28;20087;-78
2023/05/20 00:25:36;;;;;;;13.05;4.55;;;;;;;;;;4939478;28;20390;-76
2023/05/20 00:28:02;;;;;;;17.63;4.90;;;;;;;;;;4948971;28;20046;-78
2023/05/20 00:30:28;;;;;;;18.67;5.05;;;;;;;;;;4946051;28;20073;-76
2023/05/20 00:32:54;;;;;;;8.95;4.00;;;;;;;;;;4940096;28;20450;-76
2023/05/20 00:35:20;;;;;;;14.40;4.78;;;;;;;;;;4937465;28;20039;-77
2023/05/20 00:37:46;;;;;;;13.30;4.50;;;;;;;;;;4941522;28;20028;-76
2023/05/20 00:40:12;;;;;;;10.57;4.47;;;;;;;;;;4943093;28;20473;-77
2023/05/20 00:42:38;;;;;;;17.88;4.43;;;;;;;;;;4944217;28;20093;-76
2023/05/20 00:45:04;;;;;;;18.65;4.90;;;;;;;;;;4943324;28;20055;-76
2023/05/20 00:47:33;;;;;;;16.48;5.05;;;;;;;;;;4945091;28;20094;-76
2023/05/20 00:49:59;;;;;;;11.95;4.63;;;;;;;;;;4941382;28;20062;-77
2023/05/20 00:52:26;;;;;;;12.88;4.57;;;;;;;;;;4942666;28;20075;-77
2023/05/20 00:54:52;;;;;;;13.60;4.45;;;;;;;;;;4945392;28;20070;-76
2023/05/20 00:57:19;;;;;;;17.38;4.65;;;;;;;;;;4941866;28;20039;-77
2023/05/20 00:59:45;;;;;;;14.43;4.55;;;;;;;;;;4945450;28;20030;-76
2023/05/20 01:02:11;;;;;;;25.48;5.07;;;;;;;;;;4943367;28;20027;-77
2023/05/20 01:04:37;;;;;;;18.92;5.65;;;;;;;;;;4937048;28;20085;-76
2023/05/20 01:07:05;;;;;;;15.25;4.60;;;;;;;;;;4942889;28;20155;-76
2023/05/20 01:09:31;;;;;;;14.75;5.15;;;;;;;;;;4942556;28;20035;-77
2023/05/20 01:12:11;;;;;;;13.93;4.53;;;;;;;;;;4948656;28;20150;-76
2023/05/20 01:14:42;;;;;;;18.23;6.07;;;;;;;;;;4947234;28;20046;-75
2023/05/20 01:17:11;;;;;;;19.33;4.85;;;;;;;;;;4948391;28;20836;-76
2023/05/20 01:19:44;;;;;;;16.92;5.10;;;;;;;;;;4964621;28;20036;-75
2023/05/20 01:22:14;;;;;;;14.55;4.80;;;;;;;;;;4947457;28;20112;-76
2023/05/20 01:24:44;;;;;;;12.93;4.75;;;;;;;;;;4948961;28;20054;-76
2023/05/20 01:27:12;;;;;;;12.82;4.82;;;;;;;;;;4944497;28;20429;-76
2023/05/20 01:29:39;;;;;;;10.95;4.88;;;;;;;;;;4963311;28;20051;-75
2023/05/20 01:32:07;;;;;;;13.15;4.50;;;;;;;;;;4945852;28;20023;-74
2023/05/20 01:34:35;;;;;;;17.35;5.70;;;;;;;;;;4946186;28;20085;-74
2023/05/20 01:37:02;;;;;;;13.85;5.15;;;;;;;;;;4948616;28;20130;-76
2023/05/20 01:39:29;;;;;;;12.98;5.45;;;;;;;;;;4946311;28;20488;-74
2023/05/20 01:41:56;;;;;;;13.35;5.35;;;;;;;;;;4949234;28;20481;-75
2023/05/20 01:44:22;;;;;;;19.15;5.30;;;;;;;;;;4943990;28;20047;-75
2023/05/20 01:46:49;;;;;;;16.77;4.90;;;;;;;;;;4953138;28;20055;-75
2023/05/20 01:49:15;;;;;;;10.52;5.05;;;;;;;;;;4951122;28;20046;-75
2023/05/20 01:51:41;;;;;;;10.70;4.32;;;;;;;;;;4963063;28;20031;-75
2023/05/20 01:54:07;;;;;;;13.25;4.70;;;;;;;;;;4948165;28;20050;-75
2023/05/20 01:56:33;;;;;;;14.32;4.65;;;;;;;;;;4950188;28;20042;-78
2023/05/20 01:58:59;;;;;;;16.60;4.82;;;;;;;;;;4945203;28;20285;-76
2023/05/20 02:01:25;;;;;;;14.68;5.20;;;;;;;;;;4945935;28;20533;-75
2023/05/20 02:03:51;;;;;;;10.70;4.43;;;;;;;;;;4953222;28;20047;-75
2023/05/20 02:06:17;;;;;;;14.15;5.20;;;;;;;;;;4947337;28;20179;-76
2023/05/20 02:08:43;;;;;;;12.68;4.57;;;;;;;;;;4961033;28;20036;-78
2023/05/20 02:11:09;;;;;;;13.57;5.05;;;;;;;;;;4950360;28;20555;-79
2023/05/20 02:13:35;;;;;;;13.63;5.13;;;;;;;;;;4945479;28;20039;-76
2023/05/20 02:16:01;;;;;;;13.10;5.05;;;;;;;;;;4950178;28;20035;-77
2023/05/20 02:18:27;;;;;;;14.77;4.90;;;;;;;;;;4949122;28;20037;-77
2023/05/20 02:20:53;;;;;;;9.10;5.35;;;;;;;;;;4945427;28;20038;-77
2023/05/20 02:23:19;;;;;;;15.40;5.00;;;;;;;;;;4941559;28;20585;-77
2023/05/20 02:25:45;;;;;;;11.00;4.45;;;;;;;;;;4945988;28;20056;-76
2023/05/20 02:28:12;;;;;;;11.60;4.70;;;;;;;;;;4945929;28;20055;-77
2023/05/20 02:30:38;;;;;;;14.98;5.43;;;;;;;;;;4947565;28;20086;-75
2023/05/20 02:33:04;;;;;;;9.38;5.07;;;;;;;;;;4944036;28;20042;-75
2023/05/20 02:35:30;;;;;;;11.85;5.25;;;;;;;;;;4939841;28;20036;-76
2023/05/20 02:37:56;;;;;;;9.52;4.93;;;;;;;;;;4941918;28;20024;-76
2023/05/20 02:40:22;;;;;;;11.35;4.82;;;;;;;;;;4941891;28;20049;-75
2023/05/20 02:42:48;;;;;;;11.07;5.70;;;;;;;;;;4944354;28;20044;-75
2023/05/20 02:45:14;;;;;;;18.23;5.75;;;;;;;;;;4946821;28;20442;-77
2023/05/20 02:47:40;;;;;;;11.52;5.13;;;;;;;;;;4939897;28;20031;-76
2023/05/20 02:50:06;;;;;;;15.00;5.28;;;;;;;;;;4947660;28;20481;-76
2023/05/20 02:52:33;;;;;;;15.45;4.55;;;;;;;;;;4939566;28;20114;-76
2023/05/20 02:55:00;;;;;;;12.05;4.70;;;;;;;;;;4957535;28;20083;-76
2023/05/20 02:57:27;;;;;;;8.52;4.40;;;;;;;;;;4946817;28;20027;-77
2023/05/20 02:59:53;;;;;;;16.27;4.95;;;;;;;;;;4942779;28;20030;-75
2023/05/20 03:02:19;;;;;;;11.55;4.35;;;;;;;;;;4956009;28;20036;-76
2023/05/20 03:04:46;;;;;;;12.45;4.43;;;;;;;;;;4947171;28;20657;-75
2023/05/20 03:07:13;;;;;;;11.93;4.63;;;;;;;;;;4957657;28;20036;-77
2023/05/20 03:09:40;;;;;;;12.02;4.32;;;;;;;;;;4942595;28;20034;-76
2023/05/20 03:12:06;;;;;;;12.93;5.05;;;;;;;;;;4946992;28;20034;-75
2023/05/20 03:14:32;;;;;;;10.35;4.88;;;;;;;;;;4939128;28;20062;-75
2023/05/20 03:16:58;;;;;;;12.40;4.78;;;;;;;;;;4949006;28;20496;-75
2023/05/20 03:19:24;;;;;;;11.68;5.93;;;;;;;;;;4946821;28;20044;-77
2023/05/20 03:21:51;;;;;;;12.63;4.55;;;;;;;;;;4945577;28;20031;-77
2023/05/20 03:24:17;;;;;;;11.50;4.55;;;;;;;;;;4947379;28;20392;-77
2023/05/20 03:26:45;;;;;;;17.38;5.78;;;;;;;;;;4942434;28;20042;-76
2023/05/20 03:29:11;;;;;;;11.27;5.65;;;;;;;;;;4945958;28;20437;-77
2023/05/20 03:31:37;;;;;;;9.80;4.85;;;;;;;;;;4948434;28;20040;-76
2023/05/20 03:34:03;;;;;;;12.00;4.65;;;;;;;;;;4946249;28;20066;-76
2023/05/20 03:36:29;;;;;;;15.77;6.07;;;;;;;;;;4945858;28;20035;-76
2023/05/20 03:38:55;;;;;;;19.17;5.25;;;;;;;;;;4942194;28;20019;-76
2023/05/20 03:41:22;;;;;;;10.65;4.55;;;;;;;;;;4945896;28;20043;-75
2023/05/20 03:43:48;;;;;;;9.02;4.90;;;;;;;;;;4940391;28;20533;-76
2023/05/20 03:46:14;;;;;;;9.27;4.07;;;;;;;;;;4950579;28;20039;-78
2023/05/20 03:48:40;;;;;;;13.45;4.82;;;;;;;;;;4936464;28;20035;-75
2023/05/20 03:51:07;;;;;;;12.30;4.40;;;;;;;;;;4938155;28;20039;-75
2023/05/20 03:53:33;;;;;;;16.45;5.10;;;;;;;;;;4938645;28;20043;-76
2023/05/20 03:55:59;;;;;;;10.23;4.45;;;;;;;;;;4938618;28;20444;-75
2023/05/20 03:58:27;;;;;;;13.65;4.53;;;;;;;;;;4939999;28;20594;-74
2023/05/20 04:00:53;;;;;;;11.63;5.57;;;;;;;;;;4934779;28;20031;-74
2023/05/20 04:03:19;;;;;;;22.88;13.60;;;;;;;;;;4943909;28;20039;-76
2023/05/20 04:05:45;;;;;;;14.50;5.28;;;;;;;;;;4952956;29;20050;-74
2023/05/20 04:08:12;;;;;;;10.40;4.38;;;;;;;;;;4951741;28;20102;-76
2023/05/20 04:10:41;;;;;;;12.88;4.03;;;;;;;;;;4950410;28;20027;-76
2023/05/20 04:13:07;;;;;;;7.07;3.53;;;;;;;;;;4948208;28;20437;-74
2023/05/20 04:15:35;;;;;;;8.98;3.80;;;;;;;;;;4948432;28;20437;-73
2023/05/20 04:18:01;;;;;;;7.50;3.80;;;;;;;;;;4953738;28;20031;-72
2023/05/20 04:20:27;;;;;;;9.18;3.67;;;;;;;;;;4959955;28;20050;-73
2023/05/20 04:22:54;;;;;;;7.47;3.53;;;;;;;;;;4952879;28;20381;-73
2023/05/20 04:25:20;;;;;;;7.95;3.55;;;;;;;;;;4949147;28;20126;-75
2023/05/20 04:27:46;;;;;;;7.68;3.83;;;;;;;;;;4950103;28;20027;-74
2023/05/20 04:30:13;;;;;;;12.20;3.53;;;;;;;;;;4949518;28;20023;-75
2023/05/20 04:32:40;;;;;;;7.72;3.35;;;;;;;;;;4964857;28;20074;-75
2023/05/20 04:35:10;;;;;;;13.35;3.50;;;;;;;;;;4953183;28;20031;-77
2023/05/20 04:37:36;;;;;;;7.00;3.63;;;;;;;;;;4950109;28;20035;-73
2023/05/20 04:40:05;;;;;;;10.15;3.28;;;;;;;;;;4945266;28;20486;-73
2023/05/20 04:42:31;;;;;;;16.30;5.78;;;;;;;;;;4940499;29;20140;-73
2023/05/20 04:45:00;;;;;;;14.07;5.35;;;;;;;;;;4945153;28;20031;-74
2023/05/20 04:47:27;;;;;;;11.10;4.90;;;;;;;;;;4955341;28;20032;-74
2023/05/20 04:49:56;;;;;;;11.75;3.70;;;;;;;;;;4944877;28;20035;-76
2023/05/20 04:52:22;;;;;;;5.13;2.92;;;;;;;;;;4950902;28;20039;-76
2023/05/20 04:54:49;;;;;;;8.07;3.42;;;;;;;;;;4952917;28;20035;-77
2023/05/20 04:57:16;;;;;;;8.52;3.03;;;;;;;;;;4944138;28;20028;-77
2023/05/20 04:59:44;;;;;;;9.60;3.05;;;;;;;;;;4942897;28;20114;-75
2023/05/20 05:02:10;;;;;;;3.63;2.53;;;;;;;;;;4950748;28;20027;-77
2023/05/20 05:04:36;;;;;;;7.50;3.17;;;;;;;;;;4952809;28;20050;-76
2023/05/20 05:07:04;;;;;;;9.55;2.83;;;;;;;;;;4952470;28;20553;-78
2023/05/20 05:09:30;;;;;;;8.02;3.30;;;;;;;;;;4947240;28;20129;-75
2023/05/20 05:11:56;;;;;;;9.38;2.85;;;;;;;;;;4939072;28;20103;-77
2023/05/20 05:14:22;;;;;;;8.00;2.80;;;;;;;;;;4946208;28;20044;-77
2023/05/20 05:16:48;;;;;;;6.93;2.53;;;;;;;;;;4945019;28;20035;-75
2023/05/20 05:19:14;;;;;;;27.48;13.07;;;;;;;;;;4943506;29;20036;-73
2023/05/20 05:21:40;;;;;;;11.38;5.88;;;;;;;;;;4943837;29;20024;-73
2023/05/20 05:24:07;;;;;;;4.22;2.58;;;;;;;;;;4949327;29;20047;-74
2023/05/20 05:26:33;;;;;;;9.70;2.60;;;;;;;;;;4950762;28;20102;-74
2023/05/20 05:28:59;;;;;;;7.75;2.47;;;;;;;;;;4947990;28;20090;-75
2023/05/20 05:31:25;;;;;;;4.32;2.25;;;;;;;;;;4944649;28;20108;-75
2023/05/20 05:33:51;;;;;;;9.43;3.47;;;;;;;;;;4942181;28;20044;-74
2023/05/20 05:36:17;;;;;;;4.60;2.70;;;;;;;;;;4940912;28;20030;-75
2023/05/20 05:38:43;;;;;;;7.53;2.17;;;;;;;;;;4943699;28;20043;-74
2023/05/20 05:41:09;;;;;;;3.75;2.60;;;;;;;;;;4943311;28;20042;-74
2023/05/20 05:43:35;;;;;;;7.65;2.15;;;;;;;;;;4938589;28;20043;-74
2023/05/20 05:46:01;;;;;;;4.00;2.17;;;;;;;;;;4942808;28;20062;-75
2023/05/20 05:48:27;;;;;;;6.80;2.42;;;;;;;;;;4944380;28;20047;-75
2023/05/20 05:50:53;;;;;;;3.88;2.10;;;;;;;;;;4942724;28;20043;-75
2023/05/20 05:53:19;;;;;;;6.18;2.60;;;;;;;;;;4949506;28;20042;-74
2023/05/20 05:55:46;;;;;;;7.05;2.15;;;;;;;;;;4954751;28;20508;-75
2023/05/20 05:58:12;;;;;;;6.03;2.30;;;;;;;;;;4954805;28;20034;-76
2023/05/20 06:00:38;;;;;;;3.80;1.95;;;;;;;;;;4956831;28;20035;-74
2023/05/20 06:03:04;;;;;;;3.78;2.08;;;;;;;;;;4955984;29;20053;-75
2023/05/20 06:05:31;;;;;;;6.60;2.13;;;;;;;;;;4954436;29;20469;-76
2023/05/20 06:07:57;;;;;;;7.18;1.80;;;;;;;;;;4952981;28;20035;-76
2023/05/20 06:10:23;;;;;;;4.28;2.00;;;;;;;;;;4956384;28;20038;-75
2023/05/20 06:12:49;;;;;;;3.95;2.30;;;;;;;;;;4956602;28;20436;-75
2023/05/20 06:15:15;;;;;;;6.00;2.00;;;;;;;;;;4953499;28;20126;-75
2023/05/20 06:17:41;;;;;;;6.72;2.03;;;;;;;;;;4953864;29;20034;-76
2023/05/20 06:20:07;;;;;;;5.57;2.17;;;;;;;;;;4949240;28;20054;-75
2023/05/20 06:22:33;;;;;;;4.00;1.90;;;;;;;;;;4955508;28;20039;-74
2023/05/20 06:25:01;;;;;;;3.95;1.52;;;;;;;;;;4953215;29;20055;-75
2023/05/20 06:27:27;;;;;;;5.22;2.35;;;;;;;;;;4953581;29;20035;-75
2023/05/20 06:29:53;;;;;;;7.20;2.03;;;;;;;;;;4953020;28;20388;-74
2023/05/20 06:32:19;;;;;;;5.20;1.92;;;;;;;;;;4959256;28;20039;-75
2023/05/20 06:34:45;;;;;;;2.83;1.33;;;;;;;;;;4954992;29;20043;-74
2023/05/20 06:37:11;;;;;;;3.28;1.80;;;;;;;;;;4952961;28;20028;-75
2023/05/20 06:39:37;;;;;;;5.03;1.85;;;;;;;;;;4943563;28;20039;-75
2023/05/20 06:42:03;;;;;;;5.70;1.50;;;;;;;;;;4950032;28;20042;-75
2023/05/20 06:44:30;;;;;;;4.38;1.67;;;;;;;;;;4938038;28;20126;-75
2023/05/20 06:46:56;;;;;;;3.13;1.60;;;;;;;;;;4955049;28;20050;-75
2023/05/20 06:49:23;;;;;;;2.45;1.77;;;;;;;;;;4952638;28;20035;-75
2023/05/20 06:51:49;;;;;;;7.45;1.45;;;;;;;;;;4951732;28;20476;-75
2023/05/20 06:54:15;;;;;;;6.30;1.60;;;;;;;;;;4954708;29;20045;-75
2023/05/20 06:56:41;;;;;;;3.42;1.10;;;;;;;;;;4953024;28;20028;-76
2023/05/20 06:59:07;;;;;;;4.93;1.60;;;;;;;;;;4953478;29;20032;-76
2023/05/20 07:01:33;;;;;;;6.43;1.65;;;;;;;;;;4950978;28;20400;-75
2023/05/20 07:03:59;;;;;;;4.15;1.35;;;;;;;;;;4954047;29;20071;-76
2023/05/20 07:06:25;;;;;;;3.55;1.20;;;;;;;;;;4953717;28;20125;-76
2023/05/20 07:08:51;;;;;;;2.08;1.23;;;;;;;;;;4958434;28;20066;-75
2023/05/20 07:11:17;;;;;;;3.15;1.30;;;;;;;;;;4959304;28;20097;-74
2023/05/20 07:13:43;;;;;;;2.35;1.42;;;;;;;;;;4965792;28;20043;-74
2023/05/20 07:16:09;;;;;;;4.97;1.40;;;;;;;;;;4961407;28;20038;-74
2023/05/20 07:18:35;;;;;;;2.10;1.20;;;;;;;;;;4944180;28;20375;-75
2023/05/20 07:21:01;;;;;;;9.82;6.03;;;;;;;;;;4945465;29;20035;-74
2023/05/20 07:23:27;;;;;;;6.15;2.47;;;;;;;;;;4953635;29;20289;-74
2023/05/20 07:25:53;;;;;;;4.00;1.77;;;;;;;;;;4952420;29;20059;-74
2023/05/20 07:28:21;;;;;;;2.92;1.27;;;;;;;;;;4952147;28;20038;-76
2023/05/20 07:30:49;;;;;;;4.18;0.90;;;;;;;;;;4957384;28;20109;-76
2023/05/20 07:33:16;;;;;;;3.30;1.30;;;;;;;;;;4950636;28;20039;-76
2023/05/20 07:35:43;;;;;;;5.70;1.23;;;;;;;;;;4951816;28;20130;-75
2023/05/20 07:38:10;;;;;;;3.50;1.23;;;;;;;;;;4949836;28;20432;-75
2023/05/20 07:40:39;;;;;;;3.72;2.00;;;;;;;;;;4950312;28;20050;-78
2023/05/20 07:43:05;;;;;;;7.75;5.43;;;;;;;;;;4950156;29;20043;-77
2023/05/20 07:45:31;;;;;;;4.18;2.63;;;;;;;;;;4961694;28;20039;-77
2023/05/20 07:47:57;;;;;;;3.50;1.30;;;;;;;;;;4958293;28;20046;-78
2023/05/20 07:50:23;;;;;;;1.63;1.02;;;;;;;;;;4948607;28;20563;-78
2023/05/20 07:52:49;;;;;;;4.53;1.10;;;;;;;;;;4954074;28;20102;-78
2023/05/20 07:55:15;;;;;;;2.05;1.00;;;;;;;;;;4969653;28;20388;-78
2023/05/20 07:57:41;;;;;;;2.47;0.80;;;;;;;;;;4957075;28;20050;-76
2023/05/20 08:00:07;;;;;;;4.43;1.10;;;;;;;;;;4951568;28;20033;-76
2023/05/20 08:02:33;;;;;;;9.85;0.98;;;;;;;;;;4954969;28;20047;-76
2023/05/20 08:04:59;;;;;;;2.80;0.98;;;;;;;;;;4962642;28;20138;-76
2023/05/20 08:07:25;;;;;;;4.00;1.17;;;;;;;;;;4951957;28;20035;-78
2023/05/20 08:09:51;;;;;;;2.95;1.15;;;;;;;;;;4950928;28;20184;-79
2023/05/20 08:12:18;;;;;;;7.18;2.13;;;;;;;;;;4952742;28;20027;-77
2023/05/20 08:14:44;;;;;;;2.85;1.17;;;;;;;;;;4950507;28;20433;-78
2023/05/20 08:17:10;;;;;;;1.05;0.93;;;;;;;;;;4958913;28;20572;-76
2023/05/20 08:19:36;;;;;;;3.30;1.00;;;;;;;;;;4959900;28;20145;-77
2023/05/20 08:22:02;;;;;;;4.80;1.00;;;;;;;;;;4965855;28;20035;-76
2023/05/20 08:24:28;;;;;;;3.80;1.65;;;;;;;;;;4947602;28;20035;-76
2023/05/20 08:26:54;;;;;;;4.00;1.02;;;;;;;;;;4948069;28;20047;-77
2023/05/20 08:29:20;;;;;;;3.63;2.22;;;;;;;;;;4952178;28;20173;-76
2023/05/20 08:31:46;;;;;;;17.63;8.93;;;;;;;;;;4955734;28;20039;-76
2023/05/20 08:34:12;;;;;;;2.67;1.20;;;;;;;;;;4944760;28;20039;-76
2023/05/20 08:36:38;;;;;;;2.83;1.40;;;;;;;;;;4961263;28;20378;-75
2023/05/20 08:39:05;;;;;;;2.10;1.13;;;;;;;;;;4958106;28;20045;-75
2023/05/20 08:41:30;;;;;;;3.92;1.15;;;;;;;;;;4949575;28;20035;-74
2023/05/20 08:43:58;;;;;;;6.07;1.30;;;;;;;;;;4949898;28;20164;-76
2023/05/20 08:46:25;;;;;;;1.52;0.80;;;;;;;;;;4965479;28;20037;-74
2023/05/20 08:48:51;;;;;;;1.83;1.00;;;;;;;;;;4951845;29;20023;-76
2023/05/20 08:51:22;;;;;;;2.00;0.93;;;;;;;;;;4949628;28;20493;-76
2023/05/20 08:53:48;;;;;;;2.10;0.90;;;;;;;;;;4951417;28;20028;-73
2023/05/20 08:56:15;;;;;;;2.80;1.10;;;;;;;;;;4950746;28;20505;-75
2023/05/20 08:58:42;;;;;;;2.05;0.80;;;;;;;;;;4951458;29;20059;-75
2023/05/20 09:01:08;;;;;;;2.10;0.98;;;;;;;;;;4947287;28;20030;-75
2023/05/20 09:03:34;;;;;;;10.60;3.63;;;;;;;;;;4948492;28;20062;-76
2023/05/20 09:06:07;;;;;;;5.10;2.70;;;;;;;;;;4948714;28;20031;-75
2023/05/20 09:08:33;;;;;;;2.22;1.17;;;;;;;;;;4951978;28;20115;-78
2023/05/20 09:11:00;;;;;;;2.30;1.02;;;;;;;;;;4937855;29;20162;-76
2023/05/20 09:13:27;;;;;;;4.43;0.90;;;;;;;;;;4940742;28;20592;-79
2023/05/20 09:15:53;;;;;;;4.47;1.58;;;;;;;;;;4939767;28;20035;-76
2023/05/20 09:18:19;;;;;;;3.65;1.38;;;;;;;;;;4948975;28;20035;-76
2023/05/20 09:20:46;;;;;;;3.70;0.88;;;;;;;;;;4950867;28;20031;-76
2023/05/20 09:23:12;;;;;;;4.10;1.00;;;;;;;;;;4947219;28;20043;-78
2023/05/20 09:25:38;;;;;;;9.70;6.13;;;;;;;;;;4949174;28;20075;-77
2023/05/20 09:28:07;;;;;;;2.03;1.45;;;;;;;;;;4952087;29;20501;-76
2023/05/20 09:30:33;;;;;;;5.20;1.45;;;;;;;;;;4952402;28;20047;-75
2023/05/20 09:33:00;;;;;;;2.33;1.13;;;;;;;;;;4948566;28;20125;-76
2023/05/20 09:35:27;;;;;;;5.03;1.55;;;;;;;;;;4949889;28;20461;-76
2023/05/20 09:37:54;;;;;;;3.15;1.15;;;;;;;;;;4955940;29;20110;-76
2023/05/20 09:40:25;;;;;;;3.03;1.60;;;;;;;;;;4953280;28;20044;-76
2023/05/20 09:43:01;;;;;;;3.38;1.00;;;;;;;;;;4943569;28;20039;-76
2023/05/20 09:45:27;;;;;;;7.55;1.17;;;;;;;;;;4937002;28;20118;-76
2023/05/20 09:47:54;;;;;;;6.82;1.90;;;;;;;;;;4945283;28;20453;-76
2023/05/20 09:50:20;;;;;;;2.05;1.02;;;;;;;;;;4950174;28;20045;-76
2023/05/20 09:52:51;;;;;;;4.80;1.33;;;;;;;;;;4951836;28;20027;-80
2023/05/20 09:55:18;;;;;;;7.22;4.45;;;;;;;;;;4954760;28;20031;-77
2023/05/20 09:57:44;;;;;;;3.53;2.35;;;;;;;;;;4950154;28;20054;-76
2023/05/20 10:00:16;;;;;;;4.40;1.23;;;;;;;;;;4950802;28;20031;-81
2023/05/20 10:02:51;;;;;;;2.40;1.30;;;;;;;;;;4956200;28;20031;-79
2023/05/20 10:05:36;;;;;;;3.13;1.40;;;;;;;;;;4952181;28;20031;-80
2023/05/20 10:08:18;;;;;;;3.38;1.15;;;;;;;;;;4946308;28;20034;-80
2023/05/20 10:10:44;;;;;;;2.35;1.50;;;;;;;;;;4971362;28;20023;-80
2023/05/20 10:13:13;;;;;;;3.00;1.20;;;;;;;;;;4944695;28;20071;-79
2023/05/20 10:16:02;;;;;;;3.15;1.13;;;;;;;;;;4948743;28;20023;-78
2023/05/20 10:18:37;;;;;;;2.00;1.23;;;;;;;;;;4936482;28;20143;-79
2023/05/20 10:21:14;;;;;;;7.32;1.63;;;;;;;;;;4950957;28;20598;-79
2023/05/20 10:23:40;;;;;;;4.97;1.65;;;;;;;;;;4949904;28;20431;-78
2023/05/20 10:26:06;;;;;;;3.03;1.20;;;;;;;;;;4955372;29;20052;-79
2023/05/20 10:28:35;;;;;;;4.55;1.50;;;;;;;;;;4946434;28;20031;-80
2023/05/20 10:31:01;;;;;;;4.00;1.80;;;;;;;;;;4946888;28;20082;-78
2023/05/20 10:33:27;;;;;;;2.55;1.17;;;;;;;;;;4945552;28;20024;-79
2023/05/20 10:35:54;;;;;;;1.52;1.10;;;;;;;;;;4950403;28;20043;-79
2023/05/20 10:38:20;;;;;;;6.13;1.40;;;;;;;;;;4948536;28;20051;-81
2023/05/20 10:40:47;;;;;;;7.53;1.55;;;;;;;;;;4951203;28;20626;-80
2023/05/20 10:43:14;;;;;;;4.45;1.20;;;;;;;;;;4956856;28;20050;-80
2023/05/20 10:45:49;;;;;;;3.67;1.20;;;;;;;;;;4957946;28;20026;-79
2023/05/20 10:48:28;;;;;;;6.50;1.33;;;;;;;;;;4946661;28;20119;-79
2023/05/20 10:50:56;;;;;;;2.00;1.40;;;;;;;;;;4954289;29;20047;-80
2023/05/20 10:53:23;;;;;;;4.50;1.40;;;;;;;;;;4953391;28;20043;-80
2023/05/20 10:55:50;;;;;;;3.47;1.58;;;;;;;;;;4949770;28;20504;-79
2023/05/20 10:58:16;;;;;;;3.10;1.63;;;;;;;;;;4950893;28;20122;-80
2023/05/20 11:00:42;;;;;;;6.65;1.75;;;;;;;;;;4954857;28;20031;-77
2023/05/20 11:03:09;;;;;;;4.32;1.17;;;;;;;;;;4953021;28;20045;-78
2023/05/20 11:05:35;;;;;;;3.97;1.25;;;;;;;;;;4950902;28;20051;-77
2023/05/20 11:08:02;;;;;;;6.22;1.45;;;;;;;;;;4954285;28;20035;-78
2023/05/20 11:10:28;;;;;;;6.07;1.33;;;;;;;;;;4951363;28;20031;-76
2023/05/20 11:12:55;;;;;;;2.53;1.33;;;;;;;;;;4933698;29;20031;-77
2023/05/20 11:15:23;;;;;;;3.42;1.30;;;;;;;;;;4952162;28;20035;-76
2023/05/20 11:17:57;;;;;;;4.45;1.40;;;;;;;;;;4966887;28;20038;-76
2023/05/20 11:20:23;;;;;;;9.38;4.72;;;;;;;;;;4950779;28;20035;-76
2023/05/20 11:22:53;;;;;;;3.65;1.55;;;;;;;;;;4950438;28;20059;-74
2023/05/20 11:25:20;;;;;;;4.72;1.35;;;;;;;;;;4949844;28;20046;-79
2023/05/20 11:27:46;;;;;;;7.28;1.70;;;;;;;;;;4936187;28;20035;-76
2023/05/20 11:30:17;;;;;;;3.75;1.70;;;;;;;;;;4947574;28;20051;-77
2023/05/20 11:33:02;;;;;;;3.55;1.58;;;;;;;;;;4947166;28;20028;-79
2023/05/20 11:35:29;;;;;;;1.45;1.20;;;;;;;;;;4946677;28;20039;-77
2023/05/20 11:38:05;;;;;;;5.15;1.98;;;;;;;;;;4950588;28;20090;-77
2023/05/20 11:40:32;;;;;;;11.85;4.68;;;;;;;;;;4951127;28;20037;-76
2023/05/20 11:42:59;;;;;;;7.88;3.65;;;;;;;;;;4952970;29;20035;-75
2023/05/20 11:45:26;;;;;;;9.30;1.90;;;;;;;;;;4954048;28;20085;-75
2023/05/20 11:47:59;;;;;;;5.82;2.17;;;;;;;;;;4947583;28;20032;-77
2023/05/20 11:50:25;;;;;;;6.90;1.73;;;;;;;;;;4946230;28;20031;-78
2023/05/20 11:52:56;;;;;;;3.65;1.90;;;;;;;;;;4950965;28;20451;-77
2023/05/20 11:55:22;;;;;;;4.22;1.75;;;;;;;;;;4941262;28;20149;-77
2023/05/20 11:57:48;;;;;;;4.90;1.70;;;;;;;;;;4946569;28;20059;-78
2023/05/20 12:00:14;;;;;;;7.30;1.85;;;;;;;;;;4951288;28;20421;-81
2023/05/20 12:02:40;;;;;;;10.00;2.00;;;;;;;;;;4962142;28;20035;-77
2023/05/20 12:05:07;;;;;;;4.53;1.80;;;;;;;;;;4946714;28;20039;-76
2023/05/20 12:07:33;;;;;;;9.43;2.72;;;;;;;;;;4949043;28;20935;-77
2023/05/20 12:09:59;;;;;;;5.65;2.33;;;;;;;;;;4953564;29;20177;-77
2023/05/20 12:12:25;;;;;;;6.10;1.65;;;;;;;;;;4952040;28;20110;-77
2023/05/20 12:14:51;;;;;;;8.43;2.35;;;;;;;;;;4948541;28;20114;-77
2023/05/20 12:17:17;;;;;;;8.18;2.08;;;;;;;;;;4960062;28;20415;-76
2023/05/20 12:19:43;;;;;;;5.65;1.90;;;;;;;;;;4947263;28;20477;-77
2023/05/20 12:22:09;;;;;;;8.05;1.98;;;;;;;;;;4943057;28;20031;-77
2023/05/20 12:24:35;;;;;;;3.53;1.70;;;;;;;;;;4946260;28;20463;-77
2023/05/20 12:27:02;;;;;;;6.15;1.95;;;;;;;;;;4948527;28;20043;-81
2023/05/20 12:29:29;;;;;;;7.35;2.33;;;;;;;;;;4938265;28;20035;-77
2023/05/20 12:31:55;;;;;;;7.15;2.13;;;;;;;;;;4961449;28;20023;-76
2023/05/20 12:34:21;;;;;;;10.20;2.03;;;;;;;;;;4949558;28;20035;-78
2023/05/20 12:36:47;;;;;;;4.53;1.88;;;;;;;;;;4941903;28;20378;-78
2023/05/20 12:39:16;;;;;;;4.43;2.40;;;;;;;;;;4950490;29;20023;-75
2023/05/20 12:41:42;;;;;;;6.25;2.00;;;;;;;;;;4953570;28;20035;-76
2023/05/20 12:44:08;;;;;;;5.35;2.22;;;;;;;;;;4954105;28;20035;-83
2023/05/20 12:46:35;;;;;;;4.57;1.88;;;;;;;;;;4944683;28;20085;-77
2023/05/20 12:49:01;;;;;;;2.92;1.50;;;;;;;;;;4948578;28;20502;-77
2023/05/20 12:51:27;;;;;;;5.10;2.05;;;;;;;;;;4953711;28;20132;-78
2023/05/20 12:53:56;;;;;;;3.75;1.85;;;;;;;;;;4947388;28;20039;-81
2023/05/20 12:56:23;;;;;;;5.20;1.88;;;;;;;;;;4949648;28;20071;-80
2023/05/20 12:58:49;;;;;;;7.10;2.67;;;;;;;;;;4950414;28;20071;-81
2023/05/20 13:01:15;;;;;;;5.07;2.55;;;;;;;;;;4949801;28;20037;-80
2023/05/20 13:03:41;;;;;;;4.30;1.80;;;;;;;;;;4947076;28;20031;-79
2023/05/20 13:06:07;;;;;;;3.70;2.05;;;;;;;;;;4946968;28;20039;-80
2023/05/20 13:08:33;;;;;;;5.07;1.98;;;;;;;;;;4937185;28;20126;-78
2023/05/20 13:10:59;;;;;;;6.53;2.13;;;;;;;;;;4946185;28;20525;-76
2023/05/20 13:13:25;;;;;;;6.63;2.25;;;;;;;;;;4943235;28;20047;-80
2023/05/20 13:15:51;;;;;;;3.30;1.85;;;;;;;;;;4939264;28;20027;-77
2023/05/20 13:18:18;;;;;;;9.90;2.15;;;;;;;;;;4941102;28;20655;-77
2023/05/20 13:20:45;;;;;;;3.70;2.10;;;;;;;;;;4967003;28;20134;-82
2023/05/20 13:23:11;;;;;;;3.65;1.80;;;;;;;;;;4948911;28;20039;-80
2023/05/20 13:25:37;;;;;;;5.30;2.33;;;;;;;;;;4951101;28;20485;-78
2023/05/20 13:28:05;;;;;;;7.55;2.40;;;;;;;;;;4950450;28;20027;-78
2023/05/20 13:30:31;;;;;;;4.40;2.05;;;;;;;;;;4949945;28;20070;-79
2023/05/20 13:32:57;;;;;;;5.50;2.20;;;;;;;;;;4946778;28;20418;-78
2023/05/20 13:35:23;;;;;;;4.28;2.10;;;;;;;;;;4947765;28;20035;-79
2023/05/20 13:37:49;;;;;;;4.20;1.90;;;;;;;;;;4949231;28;20404;-79
2023/05/20 13:40:16;;;;;;;7.07;2.35;;;;;;;;;;4946239;28;20019;-81
2023/05/20 13:42:43;;;;;;;5.05;2.10;;;;;;;;;;4951509;28;20111;-78
2023/05/20 13:45:09;;;;;;;6.30;2.20;;;;;;;;;;4946583;28;20048;-79
2023/05/20 13:47:35;;;;;;;9.93;2.67;;;;;;;;;;4948610;28;20481;-79
2023/05/20 13:50:01;;;;;;;3.08;1.85;;;;;;;;;;4940551;28;20030;-80
2023/05/20 13:52:27;;;;;;;13.27;8.23;;;;;;;;;;4932729;29;20035;-78
2023/05/20 13:54:53;;;;;;;9.80;3.88;;;;;;;;;;4945572;28;20421;-77
2023/05/20 13:57:19;;;;;;;6.35;2.72;;;;;;;;;;4950474;28;20035;-76
2023/05/20 13:59:45;;;;;;;11.30;2.42;;;;;;;;;;4944696;28;20524;-78
2023/05/20 14:02:11;;;;;;;4.95;2.28;;;;;;;;;;4950792;28;20031;-78
2023/05/20 14:04:38;;;;;;;7.20;2.67;;;;;;;;;;4946526;28;20095;-81
2023/05/20 14:07:07;;;;;;;7.93;2.80;;;;;;;;;;4955156;28;20075;-78
2023/05/20 14:09:33;;;;;;;5.57;2.40;;;;;;;;;;4946817;28;20483;-79
2023/05/20 14:11:59;;;;;;;4.47;2.00;;;;;;;;;;4947216;28;20102;-78
2023/05/20 14:14:25;;;;;;;3.63;2.15;;;;;;;;;;4943300;28;20044;-77
2023/05/20 14:16:51;;;;;;;5.53;2.53;;;;;;;;;;4959215;28;20031;-78
2023/05/20 14:19:17;;;;;;;7.28;2.38;;;;;;;;;;4951477;28;20082;-77
2023/05/20 14:21:43;;;;;;;5.57;2.10;;;;;;;;;;4949432;28;20031;-79
2023/05/20 14:24:09;;;;;;;5.50;2.13;;;;;;;;;;4951420;28;20039;-78
2023/05/20 14:26:35;;;;;;;6.07;1.98;;;;;;;;;;4951885;28;20051;-78
2023/05/20 14:29:01;;;;;;;6.53;2.50;;;;;;;;;;4948012;28;20070;-77
2023/05/20 14:31:27;;;;;;;12.52;2.80;;;;;;;;;;4945880;28;20517;-76
2023/05/20 14:33:53;;;;;;;7.03;2.10;;;;;;;;;;4952559;28;20130;-77
2023/05/20 14:36:20;;;;;;;9.73;2.38;;;;;;;;;;4954471;29;20024;-76